Погода Шахтенкина неделю

Ростовская область, Россия

16 - 22 июля
  • 16июля
    Сегодня
    +23°
    +38°
    Облачно с прояснениями
    ВремяПогодаТемператураВлажностьДавлениеВетер, м/сВероятность осадков
    00:00Ясно и безоблачно+27°C50 %745 мм5.0 м/с2 %
    03:00Ясно и безоблачно+24°C55 %745 мм3.4 м/с2 %
    06:00Ясно и безоблачно+24°C48 %745 мм3.7 м/с2 %
    09:00Ясно и безоблачно+33°C29 %746 мм3.4 м/с2 %
    12:00Небольшая облачность+37°C22 %746 мм3.4 м/с2 %
    15:00Облачно с прояснениями+38°C20 %745 мм3.5 м/с2 %
    18:00Практически безоблачно+37°C20 %745 мм2.9 м/с2 %
    21:00Ясно и безоблачно+30°C30 %745 мм2.0 м/с2 %
  • 17июля
    Среда
    +24°
    +39°
    Облачно с прояснениями
    ВремяПогодаТемператураВлажностьДавлениеВетер, м/сВероятность осадков
    00:00Небольшая облачность+27°C33 %746 мм2.3 м/с2 %
    03:00Ясно и безоблачно+25°C41 %746 мм2.5 м/с2 %
    06:00Ясно и безоблачно+25°C39 %746 мм2.8 м/с2 %
    09:00Ясно и безоблачно+33°C24 %747 мм2.3 м/с2 %
    12:00Ясно и безоблачно+37°C19 %747 мм0.7 м/с2 %
    15:00Облачно с прояснениями+38°C18 %746 мм1.8 м/с2 %
    18:00Практически безоблачно+38°C18 %746 мм2.5 м/с2 %
    21:00Практически безоблачно+33°C25 %746 мм2.7 м/с2 %
  • 18июля
    Четверг
    +24°
    +39°
    Небольшая облачность
    ВремяПогодаТемператураВлажностьДавлениеВетер, м/сВероятность осадков
    00:00Ясно и безоблачно+27°C38 %746 мм2.3 м/с2 %
    03:00Ясно и безоблачно+25°C39 %746 мм2.8 м/с2 %
    06:00Ясно и безоблачно+25°C42 %746 мм2.9 м/с2 %
    09:00Ясно и безоблачно+33°C29 %747 мм1.9 м/с2 %
    12:00Ясно и безоблачно+37°C22 %746 мм1.5 м/с2 %
    15:00Небольшая облачность+38°C19 %745 мм1.4 м/с2 %
    18:00Практически безоблачно+38°C18 %744 мм4.1 м/с2 %
    21:00Ясно и безоблачно+33°C24 %744 мм4.3 м/с2 %
  • 19июля
    Пятница
    +22°
    +41°
    Практически безоблачно
    ВремяПогодаТемператураВлажностьДавлениеВетер, м/сВероятность осадков
    00:00Ясно и безоблачно+28°C29 %744 мм2.4 м/с2 %
    03:00Ясно и безоблачно+25°C33 %743 мм2.1 м/с2 %
    06:00Ясно и безоблачно+26°C36 %743 мм1.5 м/с2 %
    09:00Ясно и безоблачно+33°C24 %743 мм0.8 м/с2 %
    12:00Ясно и безоблачно+38°C18 %742 мм1.6 м/с6 %
    15:00Практически безоблачно+36°C26 %741 мм4.3 м/с8 %
    18:00Небольшая облачность+33°C34 %741 мм7.1 м/с14 %
    21:00Облачно с прояснениями+28°C54 %742 мм4.8 м/с2 %
  • 20июля
    Суббота
    +22°
    +36°
    Ясно и безоблачно
    ВремяПогодаТемператураВлажностьДавлениеВетер, м/сВероятность осадков
    00:00Облачно с прояснениями+25°C65 %741 мм5.2 м/с2 %
    03:00Небольшая облачность+23°C71 %742 мм4.1 м/с2 %
    06:00Ясно и безоблачно+22°C75 %742 мм4.9 м/с2 %
    09:00Ясно и безоблачно+28°C53 %742 мм4.4 м/с2 %
    12:00Ясно и безоблачно+33°C34 %742 мм3.7 м/с12 %
    15:00Ясно и безоблачно+34°C25 %742 мм3.3 м/с24 %
    18:00Ясно и безоблачно+32°C26 %741 мм3.3 м/с17 %
    21:00Ясно и безоблачно+28°C31 %742 мм2.4 м/с2 %
Мы используем cookies
Соглашаюсь